createdAt,value
2022-10-18T00:02:34.659Z,102264.63
2022-10-18T00:07:36.243Z,102275.09
2022-10-18T00:12:38.053Z,102278.53
2022-10-18T00:17:40.085Z,102275.81
2022-10-18T00:22:41.732Z,102279.97
2022-10-18T00:27:43.179Z,102287.78
2022-10-18T00:32:44.705Z,102292.56
2022-10-18T00:37:46.196Z,102291.56
2022-10-18T00:42:47.712Z,102301.09
2022-10-18T00:47:57.332Z,102309.03
2022-10-18T00:53:04.001Z,102308.13
2022-10-18T00:58:06.139Z,102299.56
2022-10-18T01:03:08.790Z,102306.56
2022-10-18T01:08:12.923Z,102314.25
2022-10-18T01:13:29.766Z,102325.63
2022-10-18T01:18:53.587Z,102321.16
2022-10-18T01:24:07.820Z,102317.81
2022-10-18T01:29:33.621Z,102327.56
2022-10-18T01:34:39.202Z,102317.84
2022-10-18T01:39:45.110Z,102319.53
2022-10-18T01:44:48.551Z,102326.75
2022-10-18T01:50:00.442Z,102326.94
2022-10-18T01:55:03.549Z,102327.25
2022-10-18T02:00:14.017Z,102342.19
2022-10-18T02:05:18.434Z,102331.94
2022-10-18T02:10:29.687Z,102327.72
2022-10-18T02:15:35.751Z,102334.22
2022-10-18T02:20:38.995Z,102329.81
2022-10-18T02:25:40.640Z,102318.69
2022-10-18T02:30:53.453Z,102318.72
2022-10-18T02:36:03.516Z,102310.72
2022-10-18T02:41:05.168Z,102309.94
2022-10-18T02:46:06.751Z,102314.56
2022-10-18T02:51:08.164Z,102309.41
2022-10-18T02:56:09.660Z,102312.94
2022-10-18T03:01:11.194Z,102314.81
2022-10-18T03:06:12.725Z,102305.19
2022-10-18T03:11:14.263Z,102308.75
2022-10-18T03:16:15.946Z,102307.94
2022-10-18T03:21:17.367Z,102316.69
2022-10-18T03:26:18.824Z,102319.06
2022-10-18T03:31:20.506Z,102318.13
2022-10-18T03:36:22.007Z,102323.38
2022-10-18T03:41:23.500Z,102323.31
2022-10-18T03:46:25.005Z,102319.66
2022-10-18T03:51:26.434Z,102321.31
2022-10-18T03:56:27.871Z,102334.28
2022-10-18T04:01:29.500Z,102332.59
2022-10-18T04:06:31.154Z,102336.13
2022-10-18T04:11:32.720Z,102323.91
2022-10-18T04:16:34.197Z,102316.03
2022-10-18T04:21:35.803Z,102317.91
2022-10-18T04:26:37.520Z,102315.31
2022-10-18T04:31:38.977Z,102316.34
2022-10-18T04:36:40.457Z,102312.84
2022-10-18T04:41:41.996Z,102300.69
2022-10-18T04:46:43.408Z,102302.59
2022-10-18T04:51:44.869Z,102298.94
2022-10-18T04:56:46.495Z,102297.28
2022-10-18T05:01:48.003Z,102292.28
2022-10-18T05:06:49.571Z,102300.00
2022-10-18T05:11:51.457Z,102300.09
2022-10-18T05:16:53.047Z,102291.34
2022-10-18T05:21:54.540Z,102280.91
2022-10-18T05:26:55.985Z,102278.44
2022-10-18T05:31:57.404Z,102281.78
2022-10-18T05:36:59.961Z,102269.53
2022-10-18T05:42:02.313Z,102274.78
2022-10-18T05:47:03.816Z,102280.16
2022-10-18T05:52:05.521Z,102280.91
2022-10-18T05:57:07.104Z,102280.13
2022-10-18T06:02:11.194Z,102279.28
2022-10-18T06:07:12.784Z,102288.72
2022-10-18T06:12:14.318Z,102301.88
2022-10-18T06:17:15.784Z,102323.66
2022-10-18T06:22:17.261Z,102323.56
2022-10-18T06:27:18.767Z,102322.50
2022-10-18T06:32:20.258Z,102330.31
2022-10-18T06:37:21.686Z,102339.88
2022-10-18T06:42:23.135Z,102325.81
2022-10-18T06:47:24.565Z,102334.56
2022-10-18T06:52:26.284Z,102322.06
2022-10-18T06:57:27.776Z,102339.53
2022-10-18T07:02:29.496Z,102354.38
2022-10-18T07:07:31.999Z,102368.28
2022-10-18T07:12:34.695Z,102371.91
2022-10-18T07:17:36.237Z,102376.25
2022-10-18T07:22:40.908Z,102369.13
2022-10-18T07:27:43.343Z,102379.53
2022-10-18T07:32:44.869Z,102384.97
2022-10-18T07:37:46.505Z,102381.53
2022-10-18T07:42:47.910Z,102386.69
2022-10-18T07:47:55.109Z,102380.78
2022-10-18T07:52:56.612Z,102405.28
2022-10-18T07:58:00.282Z,102397.44
2022-10-18T08:03:01.805Z,102394.06
2022-10-18T08:08:05.745Z,102400.25
2022-10-18T08:13:09.538Z,102402.88
2022-10-18T08:18:11.181Z,102395.03
2022-10-18T08:23:12.796Z,102404.56
2022-10-18T08:28:14.238Z,102404.88
2022-10-18T08:33:15.691Z,102412.41
2022-10-18T08:38:18.828Z,102411.22
2022-10-18T08:43:31.576Z,102413.69
2022-10-18T08:48:41.094Z,102420.88
2022-10-18T08:54:18.314Z,102420.94
2022-10-18T08:59:23.283Z,102424.47
2022-10-18T09:04:36.170Z,102424.38
2022-10-18T09:09:55.917Z,102420.06
2022-10-18T09:15:07.865Z,102410.31
2022-10-18T09:20:17.634Z,102410.19
2022-10-18T09:25:26.010Z,102404.44
2022-10-18T09:30:45.561Z,102393.75
2022-10-18T09:36:08.983Z,102405.25
2022-10-18T09:41:24.668Z,102411.31
2022-10-18T09:46:32.357Z,102400.31
2022-10-18T09:51:37.004Z,102413.53
2022-10-18T09:56:48.803Z,102417.22
2022-10-18T10:01:50.385Z,102410.34
2022-10-18T10:06:54.441Z,102411.81
2022-10-18T10:11:57.420Z,102407.72
2022-10-18T10:17:03.802Z,102419.41
2022-10-18T10:22:14.252Z,102411.59
2022-10-18T10:27:34.306Z,102418.09
2022-10-18T10:32:47.842Z,102424.19
2022-10-18T10:37:53.722Z,102424.63
2022-10-18T10:43:13.012Z,102436.50
2022-10-18T10:48:22.244Z,102428.38
2022-10-18T10:53:29.700Z,102417.91
2022-10-18T10:58:37.802Z,102418.44
2022-10-18T11:03:46.814Z,102415.28
2022-10-18T11:08:51.572Z,102419.59
2022-10-18T11:14:25.664Z,102432.06
2022-10-18T11:20:02.061Z,102432.03
2022-10-18T11:25:05.362Z,102447.78
2022-10-18T11:30:45.272Z,102435.94
2022-10-18T11:36:04.595Z,102417.56
2022-10-18T11:41:24.853Z,102426.41
2022-10-18T11:46:47.769Z,102436.31
2022-10-18T11:52:08.723Z,102444.66
2022-10-18T11:57:16.588Z,102437.81
2022-10-18T12:02:39.640Z,102429.03
2022-10-18T12:07:55.474Z,102433.72
2022-10-18T12:13:02.108Z,102430.75
2022-10-18T12:18:10.312Z,102422.34
2022-10-18T12:23:17.821Z,102439.53
2022-10-18T12:28:54.276Z,102442.78
2022-10-18T12:34:00.244Z,102429.69
2022-10-18T12:39:06.764Z,102431.72
2022-10-18T12:44:20.959Z,102440.41
2022-10-18T12:49:31.994Z,102436.94
2022-10-18T12:54:39.259Z,102444.22
2022-10-18T12:59:41.383Z,102439.50
2022-10-18T13:04:42.784Z,102434.41
2022-10-18T13:10:15.277Z,102438.06
2022-10-18T13:15:44.107Z,102446.53
2022-10-18T13:21:23.452Z,102426.34
2022-10-18T13:27:04.054Z,102444.94
2022-10-18T13:32:45.277Z,102449.16
2022-10-18T13:37:59.371Z,102459.00
2022-10-18T13:43:20.657Z,102447.78
2022-10-18T13:48:31.254Z,102456.09
2022-10-18T13:54:14.609Z,102449.84
2022-10-18T14:05:25.078Z,102457.56
2022-10-18T14:10:57.423Z,102450.59
2022-10-18T14:16:37.497Z,102459.72
2022-10-18T14:21:47.716Z,102446.59
2022-10-18T14:27:11.245Z,102450.22
2022-10-18T14:32:31.353Z,102451.41
2022-10-18T14:37:36.729Z,102445.56
2022-10-18T14:42:48.326Z,102448.19
2022-10-18T14:47:49.857Z,102452.75
2022-10-18T14:52:51.312Z,102439.97
2022-10-18T14:57:52.773Z,102440.91
2022-10-18T15:02:54.385Z,102436.66
2022-10-18T15:07:59.604Z,102435.84
2022-10-18T15:13:09.831Z,102439.72
2022-10-18T15:18:22.015Z,102442.50
2022-10-18T15:23:32.327Z,102450.59
2022-10-18T15:28:49.486Z,102454.28
2022-10-18T15:33:51.879Z,102445.66
2022-10-18T15:38:53.756Z,102452.75
2022-10-18T15:44:17.986Z,102461.69
2022-10-18T15:49:44.261Z,102454.06
2022-10-18T15:54:45.883Z,102449.91
2022-10-18T16:00:18.121Z,102452.44
2022-10-18T16:05:20.826Z,102442.16
2022-10-18T16:10:22.377Z,102444.69
2022-10-18T16:15:24.033Z,102441.44
2022-10-18T16:20:26.762Z,102443.25
2022-10-18T16:25:28.209Z,102456.44
2022-10-18T16:30:32.488Z,102460.03
2022-10-18T16:35:35.517Z,102471.28
2022-10-18T16:40:40.367Z,102476.06
2022-10-18T16:45:43.031Z,102477.19
2022-10-18T16:50:44.780Z,102477.41
2022-10-18T16:55:46.282Z,102488.81
2022-10-18T17:00:48.068Z,102498.50
2022-10-18T17:05:49.547Z,102496.00
2022-10-18T17:10:54.010Z,102511.75
2022-10-18T17:15:55.478Z,102514.34
2022-10-18T17:21:00.613Z,102526.75
2022-10-18T17:26:05.565Z,102521.59
2022-10-18T17:31:16.719Z,102512.88
2022-10-18T17:36:18.216Z,102530.25
2022-10-18T17:41:20.274Z,102534.81
2022-10-18T17:46:23.487Z,102538.34
2022-10-18T17:51:25.016Z,102538.38
2022-10-18T17:56:31.043Z,102541.09
2022-10-18T18:01:32.839Z,102553.41
2022-10-18T18:06:38.946Z,102558.63
2022-10-18T18:11:43.722Z,102555.19
2022-10-18T18:16:47.222Z,102561.22
2022-10-18T18:21:49.173Z,102549.19
2022-10-18T18:26:52.862Z,102554.53
2022-10-18T18:31:54.302Z,102556.41
2022-10-18T18:36:55.764Z,102556.50
2022-10-18T18:41:57.188Z,102566.28
2022-10-18T18:46:58.917Z,102580.22
2022-10-18T18:52:00.425Z,102568.88
2022-10-18T18:57:05.200Z,102551.38
2022-10-18T19:02:06.698Z,102564.38
2022-10-18T19:07:08.307Z,102559.16
2022-10-18T19:12:09.938Z,102574.88
2022-10-18T19:17:11.361Z,102568.78
2022-10-18T19:22:12.817Z,102569.63
2022-10-18T19:27:14.274Z,102565.31
2022-10-18T19:32:18.505Z,102561.84
2022-10-18T19:37:20.116Z,102565.41
2022-10-18T19:42:24.220Z,102564.56
2022-10-18T19:47:27.584Z,102571.63
2022-10-18T19:52:29.053Z,102564.69
2022-10-18T19:57:30.572Z,102581.34
2022-10-18T20:02:32.309Z,102579.63
2022-10-18T20:07:34.726Z,102565.63
2022-10-18T20:12:36.488Z,102583.94
2022-10-18T20:17:37.997Z,102600.50
2022-10-18T20:22:39.532Z,102581.25
2022-10-18T20:27:41.017Z,102573.53
2022-10-18T20:32:42.708Z,102577.03
2022-10-18T20:37:44.208Z,102582.25
2022-10-18T20:42:45.670Z,102582.31
2022-10-18T20:47:47.169Z,102585.81
2022-10-18T20:52:51.170Z,102594.59
2022-10-18T20:57:52.607Z,102594.56
2022-10-18T21:02:58.010Z,102590.22
2022-10-18T21:07:59.469Z,102593.69
2022-10-18T21:13:00.977Z,102593.69
2022-10-18T21:18:02.408Z,102602.47
2022-10-18T21:23:04.350Z,102605.03
2022-10-18T21:28:05.765Z,102593.69
2022-10-18T21:33:07.981Z,102575.38
2022-10-18T21:38:09.498Z,102582.38
2022-10-18T21:43:11.780Z,102586.75
2022-10-18T21:48:13.282Z,102591.13
2022-10-18T21:53:16.531Z,102590.28
2022-10-18T21:58:18.103Z,102595.50
2022-10-18T22:03:23.192Z,102598.97
2022-10-18T22:08:24.736Z,102593.75
2022-10-18T22:13:27.401Z,102606.81
2022-10-18T22:18:29.175Z,102612.94
2022-10-18T22:23:32.905Z,102612.03
2022-10-18T22:28:35.368Z,102612.94
2022-10-18T22:38:43.238Z,102601.59
2022-10-18T22:43:45.355Z,102596.38
2022-10-18T22:48:47.336Z,102597.22
2022-10-18T22:53:49.194Z,102586.78
2022-10-18T22:58:50.897Z,102604.22
2022-10-18T23:03:58.105Z,102594.63
2022-10-18T23:09:04.777Z,102585.03
2022-10-18T23:14:07.399Z,102579.81
2022-10-18T23:19:14.876Z,102579.78
2022-10-18T23:24:16.374Z,102581.56
2022-10-18T23:29:17.855Z,102579.81
2022-10-18T23:34:19.352Z,102583.31
2022-10-18T23:39:20.959Z,102582.44
2022-10-18T23:44:22.383Z,102593.78
2022-10-18T23:49:23.824Z,102586.78
2022-10-18T23:54:25.243Z,102590.28
2022-10-18T23:59:27.328Z,102599.84
